Aviation Digital Data Service (ADDS)

Output produced by METARs form (1201 UTC 16 July 2019)
found at http://www.aviationweather.gov/metar/data/
 
VTBD 161100Z 22008KT 190V260 9999 FEW030 34/25 Q1002 NOSIG
TAF VTBD 160500Z 1606/1712 25008KT 9999 FEW020 
     TEMPO 1610/1614 25010G20KT 5000 TSRA FEW018CB SCT030 BKN080 
     TEMPO 1709/1712 25010G20KT 5000 TSRA FEW018CB SCT030 BKN080
       
VTUO 161100Z 16005KT 130V190 9999 FEW025 33/26 Q1002 NOSIG
TAF VTUO 160500Z 1606/1706 23007KT 9000 FEW030 
     TEMPO 1612/1615 VRB15KT 5000 TSRA FEW018CB SCT025
       
VTCC 161030Z 25006KT 9999 FEW025CB BKN035 34/21 Q1003 NOSIG
TAF VTCC 160500Z 1606/1712 21005KT 9999 SCT035 
     TEMPO 1609/1613 VRB15G30KT 5000 TSRA FEW018CB BKN035
       
VTCT 161100Z 16006KT 9999 SCT045 33/23 Q1002 NOSIG
TAF VTCT 160500Z 1606/1712 18005KT 9999 SCT025
       
VTSE 161100Z 28006KT 240V350 9999 SCT020 BKN100 30/23 Q1005 NOSIG
TAF VTSE 160500Z 1606/1706 27010KT 9999 SCT020 SCT100 
     TEMPO 1606/1612 27010G20KT 5000 TSRA FEW016CB SCT018 BKN100
       
VTSS 161100Z VRB02KT 9999 FEW020 BKN100 28/24 Q1007 NOSIG
TAF VTSS 160500Z 1606/1706 24010KT 9999 SCT020 SCT100 
     TEMPO 1606/1611 24010G20KT 5000 TSRA FEW016CB SCT018 BKN100 
     BECMG 1613/1615 00000KT 
     BECMG 1702/1704 24010KT
       
VTPH 161100Z VRB05KT 9999 SCT040 33/21 Q1003 NOSIG
TAF VTPH 160500Z 1606/1706 14008KT 9999 FEW025 
     TEMPO 1606/1610 25010G20KT 5000 TSRA FEW018CB SCT030 BKN080 
     BECMG 1614/1616 25005KT
       
VTUK 161100Z 00000KT 9999 BKN035 36/23 Q1001 NOSIG
TAF VTUK 160500Z 1606/1706 27005KT 9999 SCT025 SCT100
       
VTSG 161100Z 27006KT 200V320 1500 +RA SCT018TCU BKN020 BKN100 24/24 Q1009 BECMG TL1120 5000 RA
TAF VTSG 160500Z 1606/1706 26008KT 9999 SCT020 
     TEMPO 1606/1612 28010G25KT 5000 TSRA FEW018CB SCT020 BKN100 
     BECMG 1614/1616 00000KT 
     BECMG 1622/1624 3000 BR
       
VTCL 161100Z 21006KT 160V240 9999 FEW035 35/20 Q1001 NOSIG
TAF VTCL 160500Z 1606/1706 24005KT 9999 SCT025 
     PROB30 
     TEMPO 1609/1613 VRB15G30KT 4000 TSRA FEW018CB BKN035
       
VTUL 161100Z 33007KT 9999 BKN030 33/22 Q1002 NOSIG
TAF VTUL 160500Z 1606/1706 23005KT 9999 SCT025 SCT100 
     TEMPO 1609/1612 VRB10G25KT 5000 TSRA FEW018CB BKN020 BKN080
       
VTCH 161100Z 03005KT 9999 FEW020CB SCT025 30/24 Q1002
TAF VTCH 160500Z 1606/1706 20005KT 9999 SCT025 
     TEMPO 1608/1614 VRB15G30KT 4000 TSRA FEW018CB BKN035
       
VTPM 161100Z 24008KT 9999 VCSH FEW015 SCT020 27/24 Q1005 TEMPO 6000 -RA
TAF VTPM 160500Z 1606/1706 26007KT 9999 BKN025 
     TEMPO 1608/1613 VRB15G30KT 4000 TSRA FEW018CB BKN035
       
VTUW 161100Z 00000KT 9999 FEW040 34/26 Q1001 NOSIG
TAF VTUW 160500Z 1606/1706 21005KT 9999 SCT025 SCT100
       
VTUQ 161100Z VRB05KT 9999 SCT025 35/21 Q1002 NOSIG
TAF VTUQ 160500Z 1606/1706 24007KT 9999 FEW030
       
VTSF 161100Z 18004KT 160V220 9999 BKN018 BKN100 25/24 Q1007 NOSIG
TAF VTSF 160500Z 1606/1706 24008KT 9999 FEW020 SCT100 
     TEMPO 1606/1612 24010G20KT 5000 TSRA FEW016CB SCT018 BKN100
       
VTCN 161100Z 05002KT 9999 SCT025 33/22 Q1001 NOSIG
TAF VTCN 160500Z 1606/1706 16005KT 9999 SCT025
       
VTSC 161000Z 27004KT 210V320 9999 FEW020 28/26 Q1006 NOSIG
TAF VTSC 160500Z 1606/1706 27010KT 9999 FEW020 SCT100 
     TEMPO 1606/1612 25010G20KT 5000 TSRA FEW016CB SCT018 BKN100 
     BECMG 1616/1618 19003KT
       
TAF VTSK 160500Z 1606/1706 23010KT 9999 FEW020 SCT100 
     TEMPO 1606/1612 25010G20KT 5000 TSRA FEW016CB SCT018 BKN100
       
VTPB 161100Z 00000KT 9999 SCT030 32/24 Q1001 NOSIG
TAF VTPB 160500Z 1606/1706 18005KT 9999 SCT025
       
VTPP 161100Z 16004KT CAVOK 34/22 Q1001 NOSIG
TAF VTPP 160500Z 1606/1706 16005KT 9999 SCT025
       
VTCP 161100Z 17003KT 130V210 9999 FEW025 34/23 Q1001 NOSIG
TAF VTCP 160500Z 1606/1706 24005KT 9999 SCT025 
     PROB30 
     TEMPO 1609/1613 VRB15G30KT 4000 TSRA FEW018CB BKN035
       
VTSP 161100Z VRB07G17KT 6000 -RA SCT016 OVC100 23/21 Q1010 RERA BECMG TL1120 8000 -RA
TAF VTSP 160500Z 1606/1712 28012KT 9999 SCT020 
     TEMPO 1608/1614 28010G25KT 3000 TSRA FEW018CB SCT020 BKN100 
     TEMPO 1706/1712 28010G25KT 3000 TSRA FEW018CB SCT020 BKN100
       
VTSR 161100Z 19003KT 140V220 9999 -RA BKN020 26/25 Q1007 NOSIG
TAF VTSR 160500Z 1606/1706 30010KT 9999 BKN020 
     TEMPO 1606/1612 30010G25KT 3000 TSRA FEW018CB SCT020 BKN100 
     BECMG 1614/1616 00000KT
       
VTUV 161100Z 13009KT 9999 FEW025 34/22 Q1001 NOSIG
TAF VTUV 160500Z 1606/1706 22006KT 9999 FEW030 
     TEMPO 1613/1616 VRB15KT 5000 TSRA FEW018CB SCT025
       
VTUI 161100Z 00000KT 9999 FEW040 33/25 Q1001 NOSIG
TAF VTUI 160500Z 1606/1706 22005KT 9999 SCT025 SCT100
       
VTSM 161100Z 28010KT 240V310 9999 FEW020 SCT100 29/24 Q1006 NOSIG
TAF VTSM 160500Z 1606/1706 28010KT 9999 FEW020 
     TEMPO 1610/1616 28010G20KT 5000 TSRA FEW016CB SCT018 BKN100
       
VTSH 161100Z 21004KT 8000 FEW018CB SCT100 29/24 Q1006 NOSIG
TAF VTSH 160500Z 1606/1706 24010KT 9999 FEW020 SCT100 
     TEMPO 1606/1611 24010G20KT 5000 TSRA FEW016CB SCT018 BKN100
       
VTPO 161100Z 18006KT 9999 FEW018CB BKN025 34/22 Q1000 TEMPO VRB15G30KT 3000 TSRA
TAF VTPO 160500Z 1606/1706 26006KT 9999 SCT025 
     PROB30 
     TEMPO 1609/1613 VRB15G30KT 5000 TSRA FEW018CB BKN035
       
VTSB 161100Z 20005KT 130V240 9999 FEW020 SCT100 27/25 Q1006
TAF VTSB 160500Z 1606/1706 26010KT 9999 FEW020 SCT100 
     TEMPO 1606/1612 26010G20KT 5000 TSRA FEW016CB SCT018 BKN100
       
TAF VTPT 160500Z 1606/1706 26007KT 9999 BKN025 
     TEMPO 1609/1613 VRB15G30KT 4000 TSRA FEW018CB BKN035
       
VTST 161100Z 22003KT 6000 -RA FEW018CB SCT020 BKN100 24/24 Q1007 RERA NOSIG
TAF VTST 160500Z 1606/1706 26010KT 9999 SCT020 
     TEMPO 1606/1612 26010G25KT 5000 TSRA FEW018CB SCT020 BKN100 
     BECMG 1614/1616 00000KT
       
VTBU 161100Z 18009KT 9999 FEW020 31/22 Q1004 NOSIG
TAF VTBU 160500Z 1606/1706 23010KT 9999 FEW020 
     BECMG 1615/1617 27006KT 
     BECMG 1621/1623 35004KT
       
VTUU 161100Z VRB02KT 9999 FEW030 35/23 Q1002 NOSIG
TAF VTUU 160500Z 1606/1706 18005KT 9999 FEW030 
     TEMPO 1613/1616 VRB15KT 5000 TSRA FEW018CB SCT025
       
VTUD 161100Z 05005KT 350V090 9999 FEW030 35/24 Q1001 NOSIG
TAF VTUD 160500Z 1606/1706 24005KT 9999 SCT025 SCT100